createdAt,value
2019-02-17T00:00:19.268Z,1017.95
2019-02-17T00:01:19.248Z,1017.97
2019-02-17T00:02:19.219Z,1017.97
2019-02-17T00:03:19.194Z,1017.95
2019-02-17T00:04:19.171Z,1017.97
2019-02-17T00:05:19.143Z,1017.98
2019-02-17T00:06:19.116Z,1017.97
2019-02-17T00:07:19.245Z,1017.97
2019-02-17T00:08:19.073Z,1017.92
2019-02-17T00:09:19.103Z,1017.91
2019-02-17T00:10:19.102Z,1017.91
2019-02-17T00:11:19.020Z,1017.90
2019-02-17T00:12:18.970Z,1017.89
2019-02-17T00:13:19.014Z,1017.86
2019-02-17T00:14:18.922Z,1017.88
2019-02-17T00:15:18.887Z,1017.89
2019-02-17T00:16:18.865Z,1017.89
2019-02-17T00:17:18.840Z,1017.92
2019-02-17T00:18:18.816Z,1017.91
2019-02-17T00:19:18.783Z,1017.88
2019-02-17T00:20:18.758Z,1017.90
2019-02-17T00:21:18.739Z,1017.88
2019-02-17T00:22:18.707Z,1017.84
2019-02-17T00:23:18.684Z,1017.87
2019-02-17T00:24:18.657Z,1017.90
2019-02-17T00:25:20.404Z,1017.89
2019-02-17T00:26:18.604Z,1017.90
2019-02-17T00:27:18.581Z,1017.96
2019-02-17T00:28:18.559Z,1017.91
2019-02-17T00:29:18.526Z,1017.86
2019-02-17T00:30:18.504Z,1017.92
2019-02-17T00:31:18.476Z,1017.87
2019-02-17T00:32:18.450Z,1017.85
2019-02-17T00:33:18.425Z,1017.84
2019-02-17T00:34:18.399Z,1017.81
2019-02-17T00:35:18.374Z,1017.78
2019-02-17T00:36:18.347Z,1017.84
2019-02-17T00:37:18.326Z,1017.79
2019-02-17T00:38:18.299Z,1017.77
2019-02-17T00:39:18.270Z,1017.81
2019-02-17T00:40:18.251Z,1017.80
2019-02-17T00:41:18.340Z,1017.76
2019-02-17T00:42:18.237Z,1017.75
2019-02-17T00:43:18.195Z,1017.79
2019-02-17T00:44:18.144Z,1017.80
2019-02-17T00:45:18.116Z,1017.81
2019-02-17T00:46:18.094Z,1017.80
2019-02-17T00:47:18.064Z,1017.78
2019-02-17T00:48:18.040Z,1017.81
2019-02-17T00:49:18.118Z,1017.83
2019-02-17T00:50:17.993Z,1017.83
2019-02-17T00:51:17.964Z,1017.84
2019-02-17T00:52:17.970Z,1017.81
2019-02-17T00:53:17.914Z,1017.80
2019-02-17T00:54:17.891Z,1017.79
2019-02-17T00:55:17.860Z,1017.82
2019-02-17T00:56:17.841Z,1017.82
2019-02-17T00:57:17.807Z,1017.80
2019-02-17T00:58:17.783Z,1017.80
2019-02-17T00:59:17.756Z,1017.79
2019-02-17T01:00:17.728Z,1017.78
2019-02-17T01:01:17.717Z,1017.79
2019-02-17T01:02:17.684Z,1017.81
2019-02-17T01:03:17.658Z,1017.78
2019-02-17T01:04:17.629Z,1017.79
2019-02-17T01:05:17.606Z,1017.79
2019-02-17T01:06:17.579Z,1017.78
2019-02-17T01:07:17.552Z,1017.81
2019-02-17T01:08:17.528Z,1017.82
2019-02-17T01:09:17.501Z,1017.80
2019-02-17T01:10:17.475Z,1017.77
2019-02-17T01:11:17.449Z,1017.80
2019-02-17T01:12:17.421Z,1017.79
2019-02-17T01:13:17.401Z,1017.79
2019-02-17T01:14:17.374Z,1017.78
2019-02-17T01:15:17.345Z,1017.75
2019-02-17T01:16:17.319Z,1017.74
2019-02-17T01:17:17.294Z,1017.73
2019-02-17T01:18:17.267Z,1017.72
2019-02-17T01:19:17.240Z,1017.66
2019-02-17T01:20:17.216Z,1017.66
2019-02-17T01:21:17.189Z,1017.66
2019-02-17T01:22:17.164Z,1017.67
2019-02-17T01:23:17.142Z,1017.66
2019-02-17T01:24:17.111Z,1017.63
2019-02-17T01:25:17.086Z,1017.63
2019-02-17T01:26:17.064Z,1017.61
2019-02-17T01:27:17.038Z,1017.61
2019-02-17T01:28:17.008Z,1017.60
2019-02-17T01:29:20.319Z,1017.56
2019-02-17T01:30:16.956Z,1017.54
2019-02-17T01:31:16.935Z,1017.56
2019-02-17T01:32:16.904Z,1017.55
2019-02-17T01:33:16.879Z,1017.57
2019-02-17T01:34:16.853Z,1017.56
2019-02-17T01:35:16.828Z,1017.52
2019-02-17T01:36:16.800Z,1017.54
2019-02-17T01:37:16.774Z,1017.52
2019-02-17T01:38:16.750Z,1017.56
2019-02-17T01:39:16.721Z,1017.51
2019-02-17T01:40:16.695Z,1017.51
2019-02-17T01:41:16.673Z,1017.49
2019-02-17T01:42:16.646Z,1017.46
2019-02-17T01:43:16.625Z,1017.48
2019-02-17T01:44:16.593Z,1017.45
2019-02-17T01:45:16.564Z,1017.46
2019-02-17T01:46:16.540Z,1017.48
2019-02-17T01:47:16.512Z,1017.44
2019-02-17T01:48:16.486Z,1017.42
2019-02-17T01:49:16.460Z,1017.44
2019-02-17T01:50:16.436Z,1017.42
2019-02-17T01:51:16.410Z,1017.38
2019-02-17T01:52:16.381Z,1017.44
2019-02-17T01:53:16.357Z,1017.43
2019-02-17T01:54:16.343Z,1017.43
2019-02-17T01:55:16.304Z,1017.41
2019-02-17T01:56:16.277Z,1017.41
2019-02-17T01:57:16.256Z,1017.42
2019-02-17T01:58:16.225Z,1017.46
2019-02-17T01:59:16.197Z,1017.46
2019-02-17T02:00:16.180Z,1017.45
2019-02-17T02:01:17.191Z,1017.46
2019-02-17T02:02:16.134Z,1017.44
2019-02-17T02:03:16.102Z,1017.43
2019-02-17T02:04:16.073Z,1017.45
2019-02-17T02:05:16.058Z,1017.47
2019-02-17T02:06:16.018Z,1017.49
2019-02-17T02:07:15.991Z,1017.46
2019-02-17T02:08:15.971Z,1017.45
2019-02-17T02:09:15.937Z,1017.43
2019-02-17T02:10:15.915Z,1017.45
2019-02-17T02:11:15.896Z,1017.40
2019-02-17T02:12:15.857Z,1017.39
2019-02-17T02:13:15.833Z,1017.37
2019-02-17T02:14:15.814Z,1017.35
2019-02-17T02:15:15.780Z,1017.34
2019-02-17T02:16:15.753Z,1017.36
2019-02-17T02:17:15.729Z,1017.31
2019-02-17T02:18:15.701Z,1017.33
2019-02-17T02:19:15.674Z,1017.32
2019-02-17T02:20:15.647Z,1017.31
2019-02-17T02:21:15.624Z,1017.30
2019-02-17T02:22:15.612Z,1017.32
2019-02-17T02:23:15.576Z,1017.31
2019-02-17T02:24:15.547Z,1017.31
2019-02-17T02:25:15.520Z,1017.25
2019-02-17T02:26:15.494Z,1017.25
2019-02-17T02:27:15.464Z,1017.28
2019-02-17T02:28:15.441Z,1017.29
2019-02-17T02:29:15.412Z,1017.25
2019-02-17T02:30:15.387Z,1017.23
2019-02-17T02:31:15.431Z,1017.26
2019-02-17T02:32:15.334Z,1017.26
2019-02-17T02:33:15.314Z,1017.21
2019-02-17T02:34:15.287Z,1017.20
2019-02-17T02:35:15.256Z,1017.23
2019-02-17T02:36:15.229Z,1017.21
2019-02-17T02:37:15.206Z,1017.13
2019-02-17T02:38:15.177Z,1017.15
2019-02-17T02:39:15.153Z,1017.12
2019-02-17T02:40:15.127Z,1017.10
2019-02-17T02:41:15.100Z,1017.14
2019-02-17T02:42:15.080Z,1017.08
2019-02-17T02:43:15.045Z,1017.09
2019-02-17T02:44:15.020Z,1017.05
2019-02-17T02:45:14.994Z,1017.04
2019-02-17T02:46:14.969Z,1017.06
2019-02-17T02:47:14.940Z,1017.09
2019-02-17T02:48:14.913Z,1017.12
2019-02-17T02:49:14.917Z,1017.13
2019-02-17T02:50:14.864Z,1017.14
2019-02-17T02:51:14.844Z,1017.11
2019-02-17T02:52:14.808Z,1017.12
2019-02-17T02:53:14.783Z,1017.15
2019-02-17T02:54:14.763Z,1017.13
2019-02-17T02:55:14.730Z,1017.13
2019-02-17T02:56:14.702Z,1017.18
2019-02-17T02:57:14.678Z,1017.11
2019-02-17T02:58:14.650Z,1017.13
2019-02-17T02:59:14.624Z,1017.18
2019-02-17T03:00:14.607Z,1017.14
2019-02-17T03:01:14.571Z,1017.14
2019-02-17T03:02:14.548Z,1017.15
2019-02-17T03:03:14.519Z,1017.16
2019-02-17T03:04:14.493Z,1017.15
2019-02-17T03:05:14.468Z,1017.12
2019-02-17T03:06:14.472Z,1017.11
2019-02-17T03:07:14.415Z,1017.10
2019-02-17T03:08:14.480Z,1017.13
2019-02-17T03:09:14.360Z,1017.13
2019-02-17T03:10:14.469Z,1017.14
2019-02-17T03:11:14.333Z,1017.15
2019-02-17T03:12:14.285Z,1017.14
2019-02-17T03:13:14.259Z,1017.13
2019-02-17T03:14:14.236Z,1017.16
2019-02-17T03:15:14.202Z,1017.15
2019-02-17T03:16:14.181Z,1017.14
2019-02-17T03:17:14.155Z,1017.15
2019-02-17T03:18:14.124Z,1017.13
2019-02-17T03:19:14.097Z,1017.10
2019-02-17T03:20:14.072Z,1017.14
2019-02-17T03:21:14.043Z,1017.14
2019-02-17T03:22:14.030Z,1017.08
2019-02-17T03:23:13.990Z,1017.10
2019-02-17T03:24:13.963Z,1017.09
2019-02-17T03:25:13.941Z,1017.08
2019-02-17T03:26:13.911Z,1017.07
2019-02-17T03:27:13.884Z,1017.08
2019-02-17T03:28:13.865Z,1017.09
2019-02-17T03:29:13.831Z,1017.08
2019-02-17T03:30:13.810Z,1017.11
2019-02-17T03:31:13.778Z,1017.07
2019-02-17T03:32:13.758Z,1017.02
2019-02-17T03:33:13.728Z,1017.02
2019-02-17T03:34:13.740Z,1017.03
2019-02-17T03:35:13.670Z,1016.99
2019-02-17T03:36:13.645Z,1017.01
2019-02-17T03:37:13.625Z,1017.00
2019-02-17T03:38:13.593Z,1017.01
2019-02-17T03:39:13.564Z,1016.96
2019-02-17T03:40:13.551Z,1016.99
2019-02-17T03:41:13.522Z,1016.99
2019-02-17T03:42:13.485Z,1016.93
2019-02-17T03:43:13.464Z,1016.94
2019-02-17T03:44:13.431Z,1016.90
2019-02-17T03:45:13.406Z,1016.90
2019-02-17T03:46:13.385Z,1016.90
2019-02-17T03:47:13.351Z,1016.86
2019-02-17T03:48:13.328Z,1016.91
2019-02-17T03:49:13.304Z,1016.88
2019-02-17T03:50:13.277Z,1016.93
2019-02-17T03:51:13.247Z,1016.91
2019-02-17T03:52:13.219Z,1016.91
2019-02-17T03:53:13.193Z,1016.84
2019-02-17T03:54:13.167Z,1016.85
2019-02-17T03:55:13.139Z,1016.84
2019-02-17T03:56:13.116Z,1016.88
2019-02-17T03:57:13.086Z,1016.89
2019-02-17T03:58:13.059Z,1016.89
2019-02-17T03:59:13.032Z,1016.85
2019-02-17T04:00:17.025Z,1016.88
2019-02-17T04:01:12.978Z,1016.82
2019-02-17T04:02:12.958Z,1016.82
2019-02-17T04:03:12.932Z,1016.82
2019-02-17T04:04:12.900Z,1016.82
2019-02-17T04:05:12.886Z,1016.82
2019-02-17T04:06:12.849Z,1016.84
2019-02-17T04:07:12.819Z,1016.82
2019-02-17T04:08:12.795Z,1016.80
2019-02-17T04:09:12.768Z,1016.81
2019-02-17T04:10:12.744Z,1016.75
2019-02-17T04:11:12.711Z,1016.71
2019-02-17T04:12:12.685Z,1016.70
2019-02-17T04:13:12.660Z,1016.66
2019-02-17T04:14:12.640Z,1016.67
2019-02-17T04:15:12.610Z,1016.69
2019-02-17T04:16:12.584Z,1016.70
2019-02-17T04:17:12.566Z,1016.67
2019-02-17T04:18:12.527Z,1016.64
2019-02-17T04:19:12.498Z,1016.66
2019-02-17T04:20:12.482Z,1016.66
2019-02-17T04:21:12.447Z,1016.66
2019-02-17T04:22:12.421Z,1016.65
2019-02-17T04:23:12.395Z,1016.66
2019-02-17T04:24:12.368Z,1016.63
2019-02-17T04:25:12.339Z,1016.65
2019-02-17T04:26:12.318Z,1016.63
2019-02-17T04:27:12.285Z,1016.70
2019-02-17T04:28:12.261Z,1016.70
2019-02-17T04:29:12.232Z,1016.67
2019-02-17T04:30:12.204Z,1016.67
2019-02-17T04:31:12.178Z,1016.68
2019-02-17T04:32:12.152Z,1016.73
2019-02-17T04:33:12.126Z,1016.70
2019-02-17T04:34:12.100Z,1016.70
2019-02-17T04:35:12.070Z,1016.68
2019-02-17T04:36:12.044Z,1016.66
2019-02-17T04:37:12.026Z,1016.69
2019-02-17T04:38:11.993Z,1016.71
2019-02-17T04:39:11.963Z,1016.71
2019-02-17T04:40:11.940Z,1016.75
2019-02-17T04:41:11.910Z,1016.70
2019-02-17T04:42:11.884Z,1016.71
2019-02-17T04:43:11.856Z,1016.62
2019-02-17T04:44:11.830Z,1016.61
2019-02-17T04:45:11.804Z,1016.61
2019-02-17T04:46:11.780Z,1016.59
2019-02-17T04:47:11.754Z,1016.60
2019-02-17T04:48:11.726Z,1016.57
2019-02-17T04:49:11.697Z,1016.58
2019-02-17T04:50:11.672Z,1016.57
2019-02-17T04:51:11.647Z,1016.52
2019-02-17T04:52:11.615Z,1016.53
2019-02-17T04:53:11.589Z,1016.51
2019-02-17T04:54:11.566Z,1016.51
2019-02-17T04:55:11.536Z,1016.49
2019-02-17T04:56:11.517Z,1016.49
2019-02-17T04:57:11.483Z,1016.47
2019-02-17T04:58:11.455Z,1016.47
2019-02-17T04:59:11.429Z,1016.46
2019-02-17T05:00:11.427Z,1016.45
2019-02-17T05:01:11.377Z,1016.41
2019-02-17T05:02:11.350Z,1016.42
2019-02-17T05:03:11.324Z,1016.43
2019-02-17T05:04:11.319Z,1016.46
2019-02-17T05:05:11.269Z,1016.42
2019-02-17T05:06:11.242Z,1016.39
2019-02-17T05:07:11.216Z,1016.44
2019-02-17T05:08:11.193Z,1016.41
2019-02-17T05:09:11.176Z,1016.39
2019-02-17T05:10:11.162Z,1016.41
2019-02-17T05:11:11.107Z,1016.40
2019-02-17T05:12:11.082Z,1016.40
2019-02-17T05:13:11.058Z,1016.36
2019-02-17T05:14:11.029Z,1016.37
2019-02-17T05:15:11.001Z,1016.40
2019-02-17T05:16:10.982Z,1016.38
2019-02-17T05:17:10.953Z,1016.41
2019-02-17T05:18:10.923Z,1016.39
2019-02-17T05:19:10.897Z,1016.37
2019-02-17T05:20:10.870Z,1016.32
2019-02-17T05:21:10.842Z,1016.32
2019-02-17T05:22:10.816Z,1016.33
2019-02-17T05:23:10.786Z,1016.34
2019-02-17T05:24:10.768Z,1016.33
2019-02-17T05:25:10.733Z,1016.33
2019-02-17T05:26:10.709Z,1016.32
2019-02-17T05:27:10.679Z,1016.31
2019-02-17T05:28:10.658Z,1016.30
2019-02-17T05:29:10.633Z,1016.34
2019-02-17T05:30:10.601Z,1016.32
2019-02-17T05:31:10.573Z,1016.32
2019-02-17T05:32:10.545Z,1016.32
2019-02-17T05:33:10.532Z,1016.27
2019-02-17T05:34:10.500Z,1016.26
2019-02-17T05:35:10.468Z,1016.27
2019-02-17T05:36:10.446Z,1016.26
2019-02-17T05:37:10.505Z,1016.26
2019-02-17T05:38:10.387Z,1016.24
2019-02-17T05:39:10.360Z,1016.22
2019-02-17T05:40:10.341Z,1016.22
2019-02-17T05:41:10.309Z,1016.21
2019-02-17T05:42:10.284Z,1016.20
2019-02-17T05:43:10.251Z,1016.22
2019-02-17T05:44:10.224Z,1016.20
2019-02-17T05:45:10.202Z,1016.18
2019-02-17T05:46:10.171Z,1016.20
2019-02-17T05:47:10.148Z,1016.21
2019-02-17T05:48:10.130Z,1016.23
2019-02-17T05:49:10.090Z,1016.23
2019-02-17T05:50:10.112Z,1016.19
2019-02-17T05:51:10.042Z,1016.15
2019-02-17T05:52:10.010Z,1016.20
2019-02-17T05:53:09.984Z,1016.20
2019-02-17T05:54:09.959Z,1016.18
2019-02-17T05:55:09.934Z,1016.13
2019-02-17T05:56:09.903Z,1016.12
2019-02-17T05:57:09.881Z,1016.13
2019-02-17T05:58:09.850Z,1016.11
2019-02-17T05:59:09.821Z,1016.14
2019-02-17T06:00:09.818Z,1016.14
2019-02-17T06:01:09.769Z,1016.11
2019-02-17T06:02:09.743Z,1016.11
2019-02-17T06:03:09.714Z,1016.09
2019-02-17T06:04:09.708Z,1016.11
2019-02-17T06:05:09.664Z,1016.06
2019-02-17T06:06:09.636Z,1016.09
2019-02-17T06:07:09.607Z,1016.12
2019-02-17T06:08:09.581Z,1016.05
2019-02-17T06:09:09.557Z,1016.08
2019-02-17T06:10:09.532Z,1016.10
2019-02-17T06:11:09.501Z,1016.12
2019-02-17T06:12:09.482Z,1016.15
2019-02-17T06:13:09.445Z,1016.08
2019-02-17T06:14:09.428Z,1016.08
2019-02-17T06:15:09.393Z,1016.08
2019-02-17T06:16:09.365Z,1016.08
2019-02-17T06:17:09.339Z,1016.05
2019-02-17T06:18:09.312Z,1016.09
2019-02-17T06:19:09.283Z,1016.11
2019-02-17T06:20:09.258Z,1016.05
2019-02-17T06:21:09.259Z,1016.09
2019-02-17T06:22:09.205Z,1016.06
2019-02-17T06:23:09.177Z,1016.08
2019-02-17T06:24:09.150Z,1016.06
2019-02-17T06:25:09.124Z,1016.07
2019-02-17T06:26:09.098Z,1016.10
2019-02-17T06:27:09.072Z,1016.12
2019-02-17T06:28:09.044Z,1016.07
2019-02-17T06:29:09.017Z,1016.07
2019-02-17T06:30:08.988Z,1016.11
2019-02-17T06:31:14.347Z,1016.10
2019-02-17T06:32:08.934Z,1016.09
2019-02-17T06:33:08.909Z,1016.10
2019-02-17T06:34:08.881Z,1016.08
2019-02-17T06:35:08.854Z,1016.14
2019-02-17T06:36:08.827Z,1016.13
2019-02-17T06:37:08.835Z,1016.09
2019-02-17T06:38:08.775Z,1016.12
2019-02-17T06:39:08.748Z,1016.13
2019-02-17T06:40:08.723Z,1016.16
2019-02-17T06:41:08.693Z,1016.15
2019-02-17T06:42:08.671Z,1016.16
2019-02-17T06:43:08.639Z,1016.12
2019-02-17T06:44:08.612Z,1016.13
2019-02-17T06:45:08.590Z,1016.13
2019-02-17T06:46:08.564Z,1016.13
2019-02-17T06:47:08.530Z,1016.12
2019-02-17T06:48:08.503Z,1016.14
2019-02-17T06:49:08.478Z,1016.13
2019-02-17T06:50:08.450Z,1016.13
2019-02-17T06:51:08.430Z,1016.13
2019-02-17T06:52:08.395Z,1016.14
2019-02-17T06:53:08.373Z,1016.19
2019-02-17T06:54:08.342Z,1016.20
2019-02-17T06:55:08.314Z,1016.21
2019-02-17T06:56:09.109Z,1016.20
2019-02-17T06:57:08.260Z,1016.22
2019-02-17T06:58:08.233Z,1016.21
2019-02-17T06:59:08.220Z,1016.18
2019-02-17T07:00:08.180Z,1016.18
2019-02-17T07:01:08.152Z,1016.22
2019-02-17T07:02:08.124Z,1016.18
2019-02-17T07:03:08.100Z,1016.19
2019-02-17T07:04:08.091Z,1016.21
2019-02-17T07:05:08.059Z,1016.25
2019-02-17T07:06:08.019Z,1016.22
2019-02-17T07:07:08.008Z,1016.18
2019-02-17T07:08:07.962Z,1016.20
2019-02-17T07:09:07.935Z,1016.21
2019-02-17T07:10:07.909Z,1016.22
2019-02-17T07:11:07.881Z,1016.22
2019-02-17T07:12:07.876Z,1016.22
2019-02-17T07:13:07.826Z,1016.27
2019-02-17T07:14:07.808Z,1016.22
2019-02-17T07:15:07.773Z,1016.24
2019-02-17T07:16:07.746Z,1016.24
2019-02-17T07:17:07.733Z,1016.26
2019-02-17T07:18:07.698Z,1016.28
2019-02-17T07:19:07.664Z,1016.28
2019-02-17T07:20:09.680Z,1016.26
2019-02-17T07:21:07.610Z,1016.30
2019-02-17T07:22:07.582Z,1016.23
2019-02-17T07:23:07.554Z,1016.27
2019-02-17T07:24:07.531Z,1016.23
2019-02-17T07:25:07.502Z,1016.21
2019-02-17T07:26:07.481Z,1016.20
2019-02-17T07:27:07.451Z,1016.22
2019-02-17T07:28:07.447Z,1016.17
2019-02-17T07:29:07.396Z,1016.22
2019-02-17T07:30:07.433Z,1016.22
2019-02-17T07:31:07.338Z,1016.19
2019-02-17T07:32:07.319Z,1016.21
2019-02-17T07:33:07.285Z,1016.20
2019-02-17T07:34:07.258Z,1016.23
2019-02-17T07:35:07.232Z,1016.17
2019-02-17T07:36:07.207Z,1016.17
2019-02-17T07:37:07.179Z,1016.19
2019-02-17T07:38:07.151Z,1016.14
2019-02-17T07:39:07.124Z,1016.15
2019-02-17T07:40:07.100Z,1016.16
2019-02-17T07:41:07.075Z,1016.11
2019-02-17T07:42:07.044Z,1016.14
2019-02-17T07:43:07.016Z,1016.14
2019-02-17T07:44:06.998Z,1016.11
2019-02-17T07:45:06.963Z,1016.11
2019-02-17T07:46:06.936Z,1016.16
2019-02-17T07:47:06.917Z,1016.15
2019-02-17T07:48:06.882Z,1016.17
2019-02-17T07:49:06.856Z,1016.15
2019-02-17T07:50:06.831Z,1016.18
2019-02-17T07:51:06.802Z,1016.14
2019-02-17T07:52:06.776Z,1016.15
2019-02-17T07:53:06.753Z,1016.16
2019-02-17T07:54:06.727Z,1016.16
2019-02-17T07:55:06.705Z,1016.16
2019-02-17T07:56:06.668Z,1016.14
2019-02-17T07:57:06.645Z,1016.13
2019-02-17T07:58:06.623Z,1016.14
2019-02-17T07:59:06.589Z,1016.14
2019-02-17T08:00:06.564Z,1016.14
2019-02-17T08:01:07.334Z,1016.14
2019-02-17T08:02:06.509Z,1016.19
2019-02-17T08:03:06.486Z,1016.17
2019-02-17T08:04:06.461Z,1016.14
2019-02-17T08:05:06.430Z,1016.17
2019-02-17T08:06:06.404Z,1016.19
2019-02-17T08:07:06.383Z,1016.18
2019-02-17T08:08:06.352Z,1016.20
2019-02-17T08:09:06.325Z,1016.17
2019-02-17T08:10:06.299Z,1016.15
2019-02-17T08:11:06.273Z,1016.10
2019-02-17T08:12:06.245Z,1016.11
2019-02-17T08:13:06.219Z,1016.12
2019-02-17T08:14:06.196Z,1016.14
2019-02-17T08:15:07.322Z,1016.12
2019-02-17T08:16:06.141Z,1016.15
2019-02-17T08:17:06.120Z,1016.12
2019-02-17T08:18:06.089Z,1016.17
2019-02-17T08:19:06.066Z,1016.18
2019-02-17T08:20:06.036Z,1016.16
2019-02-17T08:21:06.030Z,1016.17
2019-02-17T08:22:06.004Z,1016.18
2019-02-17T08:23:05.959Z,1016.16
2019-02-17T08:24:05.938Z,1016.17
2019-02-17T08:25:05.909Z,1016.16
2019-02-17T08:26:05.884Z,1016.17
2019-02-17T08:27:05.854Z,1016.19
2019-02-17T08:28:05.831Z,1016.16
2019-02-17T08:29:05.804Z,1016.20
2019-02-17T08:30:05.777Z,1016.17
2019-02-17T08:31:05.750Z,1016.14
2019-02-17T08:32:05.729Z,1016.17
2019-02-17T08:33:05.697Z,1016.14
2019-02-17T08:34:05.673Z,1016.11
2019-02-17T08:35:05.651Z,1016.13
2019-02-17T08:36:05.623Z,1016.10
2019-02-17T08:37:05.598Z,1016.12
2019-02-17T08:38:05.646Z,1016.12
2019-02-17T08:39:05.552Z,1016.08
2019-02-17T08:40:05.528Z,1016.06
2019-02-17T08:41:05.498Z,1016.12
2019-02-17T08:42:05.470Z,1016.10
2019-02-17T08:43:05.441Z,1016.08
2019-02-17T08:44:05.416Z,1016.06
2019-02-17T08:45:05.391Z,1016.08
2019-02-17T08:46:05.366Z,1016.07
2019-02-17T08:47:05.340Z,1016.02
2019-02-17T08:48:05.314Z,1016.03
2019-02-17T08:49:05.295Z,1015.99
2019-02-17T08:50:05.264Z,1016.02
2019-02-17T08:51:05.241Z,1016.05
2019-02-17T08:52:05.212Z,1016.00
2019-02-17T08:53:05.193Z,1016.04
2019-02-17T08:54:05.182Z,1016.07
2019-02-17T08:55:05.137Z,1016.04
2019-02-17T08:56:05.112Z,1016.03
2019-02-17T08:57:05.095Z,1016.02
2019-02-17T08:58:05.222Z,1016.01
2019-02-17T08:59:05.052Z,1015.96
2019-02-17T09:00:05.010Z,1015.97
2019-02-17T09:01:04.986Z,1016.00
2019-02-17T09:02:06.176Z,1015.97
2019-02-17T09:03:04.935Z,1015.99
2019-02-17T09:04:04.910Z,1015.96
2019-02-17T09:05:04.885Z,1015.96
2019-02-17T09:06:04.860Z,1015.96
2019-02-17T09:07:06.439Z,1015.97
2019-02-17T09:08:04.823Z,1015.96
2019-02-17T09:09:04.796Z,1015.99
2019-02-17T09:10:04.766Z,1015.98
2019-02-17T09:11:04.738Z,1015.92
2019-02-17T09:12:04.714Z,1015.97
2019-02-17T09:13:04.697Z,1015.88
2019-02-17T09:14:04.661Z,1015.88
2019-02-17T09:15:04.638Z,1015.90
2019-02-17T09:16:04.616Z,1015.88
2019-02-17T09:17:04.585Z,1015.84
2019-02-17T09:18:04.571Z,1015.88
2019-02-17T09:19:04.538Z,1015.82
2019-02-17T09:20:04.511Z,1015.79
2019-02-17T09:21:04.490Z,1015.79
2019-02-17T09:22:04.463Z,1015.78
2019-02-17T09:23:04.444Z,1015.79
2019-02-17T09:24:04.438Z,1015.78
2019-02-17T09:25:04.394Z,1015.75
2019-02-17T09:26:04.393Z,1015.75
2019-02-17T09:27:04.339Z,1015.73
2019-02-17T09:28:04.318Z,1015.77
2019-02-17T09:29:04.291Z,1015.72
2019-02-17T09:30:04.266Z,1015.71
2019-02-17T09:31:04.246Z,1015.72
2019-02-17T09:32:04.303Z,1015.71
2019-02-17T09:33:04.194Z,1015.68
2019-02-17T09:34:04.169Z,1015.69
2019-02-17T09:35:04.145Z,1015.67
2019-02-17T09:36:04.119Z,1015.68
2019-02-17T09:37:04.098Z,1015.69
2019-02-17T09:38:04.077Z,1015.68
2019-02-17T09:39:04.050Z,1015.68
2019-02-17T09:40:04.028Z,1015.71
2019-02-17T09:41:03.999Z,1015.64
2019-02-17T09:42:03.976Z,1015.64
2019-02-17T09:43:03.951Z,1015.63
2019-02-17T09:44:03.932Z,1015.66
2019-02-17T09:45:03.903Z,1015.64
2019-02-17T09:46:03.879Z,1015.61
2019-02-17T09:47:03.871Z,1015.59
2019-02-17T09:48:03.836Z,1015.64
2019-02-17T09:49:03.820Z,1015.61
2019-02-17T09:50:03.831Z,1015.62
2019-02-17T09:51:03.758Z,1015.63
2019-02-17T09:52:03.734Z,1015.63
2019-02-17T09:53:03.711Z,1015.65
2019-02-17T09:54:03.692Z,1015.63
2019-02-17T09:55:03.666Z,1015.61
2019-02-17T09:56:03.640Z,1015.60
2019-02-17T09:57:03.616Z,1015.62
2019-02-17T09:58:03.592Z,1015.64
2019-02-17T09:59:03.568Z,1015.65
2019-02-17T10:00:03.547Z,1015.64
2019-02-17T10:01:03.531Z,1015.62
2019-02-17T10:02:03.582Z,1015.61
2019-02-17T10:03:03.486Z,1015.62
2019-02-17T10:04:03.514Z,1015.61
2019-02-17T10:05:03.478Z,1015.63
2019-02-17T10:06:03.404Z,1015.61
2019-02-17T10:07:03.380Z,1015.61
2019-02-17T10:08:03.361Z,1015.60
2019-02-17T10:09:03.342Z,1015.60
2019-02-17T10:10:03.313Z,1015.58
2019-02-17T10:11:03.285Z,1015.62
2019-02-17T10:12:03.273Z,1015.55
2019-02-17T10:13:03.268Z,1015.55
2019-02-17T10:14:03.217Z,1015.54
2019-02-17T10:15:03.194Z,1015.56
2019-02-17T10:16:03.170Z,1015.52
2019-02-17T10:17:03.147Z,1015.50
2019-02-17T10:18:03.128Z,1015.57
2019-02-17T10:19:03.101Z,1015.50
2019-02-17T10:20:03.077Z,1015.53
2019-02-17T10:21:03.059Z,1015.50
2019-02-17T10:22:03.043Z,1015.51
2019-02-17T10:23:03.020Z,1015.53
2019-02-17T10:24:03.020Z,1015.51
2019-02-17T10:25:02.978Z,1015.50
2019-02-17T10:26:02.941Z,1015.46
2019-02-17T10:27:02.916Z,1015.46
2019-02-17T10:28:02.894Z,1015.48
2019-02-17T10:29:02.878Z,1015.46
2019-02-17T10:30:02.855Z,1015.42
2019-02-17T10:31:02.829Z,1015.42
2019-02-17T10:32:02.803Z,1015.35
2019-02-17T10:33:02.786Z,1015.38
2019-02-17T10:34:02.760Z,1015.35
2019-02-17T10:35:02.741Z,1015.35
2019-02-17T10:36:02.716Z,1015.33
2019-02-17T10:37:02.692Z,1015.28
2019-02-17T10:38:02.680Z,1015.28
2019-02-17T10:39:02.655Z,1015.31
2019-02-17T10:40:02.624Z,1015.31
2019-02-17T10:41:02.602Z,1015.29
2019-02-17T10:42:02.581Z,1015.28
2019-02-17T10:43:03.647Z,1015.24
2019-02-17T10:44:02.536Z,1015.26
2019-02-17T10:45:02.512Z,1015.24
2019-02-17T10:46:02.491Z,1015.20
2019-02-17T10:47:02.466Z,1015.25
2019-02-17T10:48:02.445Z,1015.22
2019-02-17T10:49:02.424Z,1015.22
2019-02-17T10:50:02.401Z,1015.27
2019-02-17T10:51:02.394Z,1015.23
2019-02-17T10:52:02.362Z,1015.21
2019-02-17T10:53:02.353Z,1015.22
2019-02-17T10:54:02.317Z,1015.22
2019-02-17T10:55:02.313Z,1015.19
2019-02-17T10:56:02.271Z,1015.17
2019-02-17T10:57:02.250Z,1015.17
2019-02-17T10:58:02.308Z,1015.17
2019-02-17T10:59:02.218Z,1015.15
2019-02-17T11:00:02.239Z,1015.14
2019-02-17T11:01:02.168Z,1015.17
2019-02-17T11:02:02.971Z,1015.13
2019-02-17T11:03:02.205Z,1015.12
2019-02-17T11:04:02.113Z,1015.10
2019-02-17T11:05:02.084Z,1015.10
2019-02-17T11:06:02.073Z,1015.10
2019-02-17T11:07:02.035Z,1015.08
2019-02-17T11:08:02.027Z,1015.11
2019-02-17T11:09:02.004Z,1015.06
2019-02-17T11:10:01.966Z,1015.03
2019-02-17T11:11:01.956Z,1015.06
2019-02-17T11:12:01.935Z,1015.04
2019-02-17T11:13:01.907Z,1015.03
2019-02-17T11:14:01.883Z,1015.00
2019-02-17T11:15:01.896Z,1014.96
2019-02-17T11:16:01.840Z,1015.00
2019-02-17T11:17:01.836Z,1014.97
2019-02-17T11:18:01.797Z,1015.01
2019-02-17T11:19:01.787Z,1014.93
2019-02-17T11:20:01.761Z,1014.91
2019-02-17T11:21:01.760Z,1014.91
2019-02-17T11:22:01.724Z,1014.89
2019-02-17T11:23:01.689Z,1014.87
2019-02-17T11:24:01.672Z,1014.87
2019-02-17T11:25:01.657Z,1014.88
2019-02-17T11:26:01.656Z,1014.85
2019-02-17T11:27:01.607Z,1014.83
2019-02-17T11:28:01.610Z,1014.85
2019-02-17T11:29:01.602Z,1014.84
2019-02-17T11:30:01.551Z,1014.78
2019-02-17T11:31:01.529Z,1014.77
2019-02-17T11:32:01.513Z,1014.78
2019-02-17T11:33:01.484Z,1014.78
2019-02-17T11:34:01.463Z,1014.76
2019-02-17T11:35:01.458Z,1014.73
2019-02-17T11:36:01.428Z,1014.70
2019-02-17T11:37:01.410Z,1014.71
2019-02-17T11:38:01.391Z,1014.67
2019-02-17T11:39:01.363Z,1014.68
2019-02-17T11:40:01.342Z,1014.66
2019-02-17T11:41:01.322Z,1014.64
2019-02-17T11:42:01.303Z,1014.61
2019-02-17T11:43:01.282Z,1014.61
2019-02-17T11:44:01.264Z,1014.56
2019-02-17T11:45:01.243Z,1014.58
2019-02-17T11:46:01.222Z,1014.59
2019-02-17T11:47:01.206Z,1014.58
2019-02-17T11:48:01.180Z,1014.54
2019-02-17T11:49:01.162Z,1014.56
2019-02-17T11:50:01.143Z,1014.51
2019-02-17T11:51:01.121Z,1014.57
2019-02-17T11:52:01.110Z,1014.57
2019-02-17T11:53:01.084Z,1014.55
2019-02-17T11:54:01.064Z,1014.57
2019-02-17T11:55:01.046Z,1014.56
2019-02-17T11:56:01.084Z,1014.57
2019-02-17T11:57:01.006Z,1014.57
2019-02-17T11:58:01.035Z,1014.49
2019-02-17T11:59:00.968Z,1014.52
2019-02-17T12:00:00.948Z,1014.43
2019-02-17T12:01:00.930Z,1014.49
2019-02-17T12:02:00.910Z,1014.45
2019-02-17T12:03:07.559Z,1014.42
2019-02-17T12:04:00.872Z,1014.43
2019-02-17T12:05:00.879Z,1014.39